createdAt,value
2023-01-24T00:01:33.042Z,0.86
2023-01-24T00:04:02.099Z,0.85
2023-01-24T00:06:31.378Z,0.82
2023-01-24T00:09:00.416Z,0.78
2023-01-24T00:11:29.467Z,0.75
2023-01-24T00:13:58.545Z,0.77
2023-01-24T00:16:27.544Z,0.77
2023-01-24T00:18:58.724Z,0.80
2023-01-24T00:21:30.130Z,0.78
2023-01-24T00:23:59.144Z,0.78
2023-01-24T00:26:28.010Z,0.77
2023-01-24T00:28:57.223Z,0.75
2023-01-24T00:31:26.725Z,0.72
2023-01-24T00:33:57.437Z,0.71
2023-01-24T00:36:26.363Z,0.72
2023-01-24T00:38:56.138Z,0.71
2023-01-24T00:41:28.399Z,0.73
2023-01-24T00:43:57.302Z,0.72
2023-01-24T00:46:26.266Z,0.72
2023-01-24T00:48:55.308Z,0.72
2023-01-24T00:51:24.630Z,0.72
2023-01-24T00:53:54.217Z,0.71
2023-01-24T00:56:23.498Z,0.70
2023-01-24T00:58:52.161Z,0.70
2023-01-24T04:01:12.534Z,0.76
2023-01-24T04:04:08.831Z,0.78
2023-01-24T04:06:37.763Z,0.77
2023-01-24T04:09:07.781Z,0.76
2023-01-24T04:11:37.780Z,0.77
2023-01-24T04:14:12.625Z,0.77
2023-01-24T04:16:52.382Z,0.76
2023-01-24T04:19:25.865Z,0.76
2023-01-24T04:21:54.927Z,0.76
2023-01-24T04:24:24.922Z,0.76
2023-01-24T04:26:53.921Z,0.75
2023-01-24T04:29:29.048Z,0.72
2023-01-24T04:32:01.337Z,0.73
2023-01-24T04:34:55.955Z,0.75
2023-01-24T04:37:39.075Z,0.73
2023-01-24T04:40:08.709Z,0.67
2023-01-24T04:42:39.530Z,0.64
2023-01-24T04:45:09.531Z,0.64
2023-01-24T04:47:39.399Z,0.67
2023-01-24T04:50:09.641Z,0.70
2023-01-24T04:52:38.483Z,0.71
2023-01-24T04:55:10.114Z,0.72
2023-01-24T04:57:39.134Z,0.70
2023-01-24T05:00:12.031Z,0.68
2023-01-24T05:02:41.140Z,0.69
2023-01-24T05:05:09.721Z,0.69
2023-01-24T05:07:39.254Z,0.67
2023-01-24T05:10:13.277Z,0.68
2023-01-24T05:12:42.091Z,0.68
2023-01-24T05:15:21.272Z,0.68
2023-01-24T05:17:51.067Z,0.68
2023-01-24T05:20:22.138Z,0.70
2023-01-24T05:22:51.171Z,0.72
2023-01-24T05:25:20.778Z,0.72
2023-01-24T05:27:49.286Z,0.69
2023-01-24T05:30:18.599Z,0.67
2023-01-24T05:32:48.615Z,0.63
2023-01-24T05:35:17.892Z,0.58
2023-01-24T05:37:46.748Z,0.54
2023-01-24T05:40:17.664Z,0.53
2023-01-24T05:42:47.343Z,0.52
2023-01-24T05:45:15.526Z,0.50
2023-01-24T05:47:44.780Z,0.52
2023-01-24T05:50:17.084Z,0.54
2023-01-24T05:52:47.664Z,0.54
2023-01-24T05:55:17.021Z,0.53
2023-01-24T05:57:50.149Z,0.51
2023-01-24T06:00:53.594Z,0.50
2023-01-24T06:03:42.269Z,0.51
2023-01-24T06:06:13.076Z,0.51
2023-01-24T06:08:43.037Z,0.50
2023-01-24T06:11:15.545Z,0.49
2023-01-24T06:13:44.882Z,0.51
2023-01-24T06:16:19.269Z,0.50
2023-01-24T06:18:49.943Z,0.50
2023-01-24T06:21:43.434Z,0.48
2023-01-24T06:24:23.233Z,0.48
2023-01-24T06:27:12.929Z,0.49
2023-01-24T06:29:42.171Z,0.51
2023-01-24T06:32:43.410Z,0.52
2023-01-24T06:35:18.721Z,0.53
2023-01-24T06:37:52.724Z,0.53
2023-01-24T06:40:24.317Z,0.54
2023-01-24T06:42:54.918Z,0.53
2023-01-24T06:45:24.626Z,0.53
2023-01-24T06:47:54.067Z,0.53
2023-01-24T06:50:23.975Z,0.56
2023-01-24T06:52:54.555Z,0.59
2023-01-24T06:55:23.902Z,0.62
2023-01-24T06:57:58.056Z,0.66
2023-01-24T07:00:27.437Z,0.67
2023-01-24T07:03:09.261Z,0.70
2023-01-24T07:05:40.479Z,0.72
2023-01-24T07:08:09.587Z,0.71
2023-01-24T07:10:40.491Z,0.70
2023-01-24T07:13:09.336Z,0.67
2023-01-24T07:15:38.546Z,0.66
2023-01-24T07:18:13.618Z,0.67
2023-01-24T07:20:42.980Z,0.69
2023-01-24T07:23:36.161Z,0.70
2023-01-24T07:26:05.456Z,0.70
2023-01-24T07:28:34.155Z,0.72
2023-01-24T07:31:03.133Z,0.73
2023-01-24T07:33:32.441Z,0.71
2023-01-24T07:36:01.479Z,0.71
2023-01-24T07:38:30.494Z,0.71
2023-01-24T07:41:00.572Z,0.73
2023-01-24T07:43:30.320Z,0.74
2023-01-24T07:45:59.551Z,0.76
2023-01-24T07:48:29.237Z,0.77
2023-01-24T07:51:01.778Z,0.78
2023-01-24T07:53:32.661Z,0.80
2023-01-24T07:56:03.020Z,0.80
2023-01-24T07:58:32.437Z,0.80
2023-01-24T08:01:01.408Z,0.82
2023-01-24T08:03:30.359Z,0.84
2023-01-24T08:05:59.631Z,0.88
2023-01-24T08:08:28.614Z,0.92
2023-01-24T08:10:57.798Z,0.96
2023-01-24T08:13:26.898Z,1.00
2023-01-24T08:15:56.124Z,1.03
2023-01-24T08:18:25.317Z,1.06
2023-01-24T08:20:57.818Z,1.07
2023-01-24T08:23:26.221Z,1.09
2023-01-24T08:25:55.279Z,1.10
2023-01-24T08:28:23.509Z,1.12
2023-01-24T08:30:51.835Z,1.17
2023-01-24T08:33:20.403Z,1.24
2023-01-24T08:35:50.118Z,1.28
2023-01-24T08:38:19.603Z,1.28
2023-01-24T08:40:50.457Z,1.27
2023-01-24T08:43:19.817Z,1.22
2023-01-24T08:45:48.886Z,1.20
2023-01-24T08:48:17.401Z,1.18
2023-01-24T08:50:45.721Z,1.16
2023-01-24T08:53:15.942Z,1.13
2023-01-24T08:55:45.086Z,1.11
2023-01-24T08:58:13.865Z,1.09
2023-01-24T09:00:42.317Z,1.04
2023-01-24T09:03:12.639Z,1.02
2023-01-24T09:05:44.113Z,1.01
2023-01-24T09:08:13.240Z,0.98
2023-01-24T09:10:41.804Z,0.95
2023-01-24T09:13:10.121Z,0.97
2023-01-24T09:15:38.420Z,1.00
2023-01-24T09:18:07.274Z,1.03
2023-01-24T09:20:36.269Z,1.04
2023-01-24T09:23:16.070Z,1.09
2023-01-24T09:25:53.897Z,1.10
2023-01-24T09:28:23.385Z,1.09
2023-01-24T09:30:52.496Z,1.09
2023-01-24T09:33:21.249Z,1.09
2023-01-24T09:36:01.071Z,1.10
2023-01-24T09:38:32.748Z,1.13
2023-01-24T09:41:12.940Z,1.14
2023-01-24T09:43:50.892Z,1.18
2023-01-24T09:46:35.034Z,1.22
2023-01-24T09:49:06.781Z,1.22
2023-01-24T09:51:41.825Z,1.17
2023-01-24T09:54:23.348Z,1.20
2023-01-24T09:56:53.681Z,1.20
2023-01-24T09:59:36.750Z,1.16
2023-01-24T10:02:18.099Z,1.18
2023-01-24T10:04:49.655Z,1.27
2023-01-24T10:07:50.171Z,1.35
2023-01-24T10:10:47.224Z,1.45
2023-01-24T10:13:19.005Z,1.57
2023-01-24T10:15:50.915Z,1.63
2023-01-24T10:18:22.869Z,1.67
2023-01-24T10:20:55.792Z,1.70
2023-01-24T10:23:43.169Z,1.69
2023-01-24T10:26:40.409Z,1.65
2023-01-24T10:29:32.711Z,1.59
2023-01-24T10:32:25.934Z,1.52
2023-01-24T10:34:59.899Z,1.49
2023-01-24T10:37:35.775Z,1.45
2023-01-24T10:40:13.177Z,1.43
2023-01-24T10:42:42.573Z,1.37
2023-01-24T10:45:36.564Z,1.38
2023-01-24T10:48:14.214Z,1.38
2023-01-24T10:50:45.623Z,1.36
2023-01-24T10:53:34.598Z,1.32
2023-01-24T10:56:05.933Z,1.30
2023-01-24T10:59:03.916Z,1.32
2023-01-24T11:01:53.302Z,1.31
2023-01-24T11:04:29.429Z,1.36
2023-01-24T11:06:58.582Z,1.41
2023-01-24T11:09:36.087Z,1.42
2023-01-24T11:12:05.230Z,1.45
2023-01-24T11:14:39.317Z,1.48
2023-01-24T11:17:36.123Z,1.56
2023-01-24T11:20:31.383Z,1.63
2023-01-24T11:23:13.636Z,1.67
2023-01-24T11:26:22.135Z,1.71
2023-01-24T11:29:03.275Z,1.74
2023-01-24T11:31:40.016Z,1.78
2023-01-24T11:34:42.946Z,1.79
2023-01-24T11:37:33.619Z,1.79
2023-01-24T11:40:21.846Z,1.79
2023-01-24T11:43:09.711Z,1.79
2023-01-24T11:46:07.314Z,1.81
2023-01-24T11:48:56.443Z,1.80
2023-01-24T11:51:40.920Z,1.79
2023-01-24T11:54:25.630Z,1.76
2023-01-24T11:57:33.827Z,1.73
2023-01-24T12:00:26.093Z,1.72
2023-01-24T12:03:11.150Z,1.72
2023-01-24T12:05:59.620Z,1.71
2023-01-24T12:08:40.169Z,1.70
2023-01-24T12:11:33.508Z,1.68
2023-01-24T12:14:19.315Z,1.69
2023-01-24T12:17:15.070Z,1.69
2023-01-24T12:19:53.033Z,1.70
2023-01-24T12:22:25.016Z,1.70
2023-01-24T12:25:03.902Z,1.65
2023-01-24T12:27:36.883Z,1.62
2023-01-24T12:30:34.755Z,1.57
2023-01-24T12:33:42.379Z,1.46
2023-01-24T12:36:31.816Z,1.36
2023-01-24T12:39:10.980Z,1.34
2023-01-24T12:41:39.944Z,1.30
2023-01-24T12:44:21.710Z,1.26
2023-01-24T12:47:11.844Z,1.24
2023-01-24T12:49:54.850Z,1.26
2023-01-24T12:52:49.948Z,1.28
2023-01-24T12:56:08.304Z,1.32
2023-01-24T12:58:43.713Z,1.40
2023-01-24T13:01:21.213Z,1.42
2023-01-24T13:04:12.626Z,1.46
2023-01-24T13:06:48.189Z,1.47
2023-01-24T13:09:40.951Z,1.49
2023-01-24T13:12:16.766Z,1.50
2023-01-24T13:14:52.221Z,1.49
2023-01-24T13:17:39.854Z,1.47
2023-01-24T13:20:33.256Z,1.47
2023-01-24T13:23:16.774Z,1.46
2023-01-24T13:26:07.320Z,1.42
2023-01-24T13:28:54.711Z,1.38
2023-01-24T13:31:54.274Z,1.36
2023-01-24T13:34:29.566Z,1.33
2023-01-24T13:36:58.811Z,1.32
2023-01-24T13:39:35.507Z,1.33
2023-01-24T13:42:32.598Z,1.35
2023-01-24T13:45:28.515Z,1.37
2023-01-24T13:48:01.516Z,1.37
2023-01-24T13:50:31.522Z,1.37
2023-01-24T13:53:02.429Z,1.35
2023-01-24T13:55:34.002Z,1.30
2023-01-24T13:58:08.870Z,1.28
2023-01-24T14:00:43.692Z,1.25
2023-01-24T14:03:21.688Z,1.23
2023-01-24T14:06:06.619Z,1.20
2023-01-24T14:08:40.216Z,1.14
2023-01-24T14:11:10.691Z,1.12
2023-01-24T14:13:48.021Z,1.11
2023-01-24T14:16:25.483Z,1.11
2023-01-24T14:19:14.206Z,1.09
2023-01-24T14:22:07.294Z,1.06
2023-01-24T14:24:38.985Z,1.03
2023-01-24T14:27:36.660Z,1.01
2023-01-24T14:30:17.083Z,0.97
2023-01-24T14:32:45.364Z,0.91
2023-01-24T14:35:24.710Z,0.88
2023-01-24T14:37:53.120Z,0.87
2023-01-24T14:40:28.243Z,0.84
2023-01-24T14:43:04.684Z,0.82
2023-01-24T14:45:35.417Z,0.80
2023-01-24T14:48:10.154Z,0.79
2023-01-24T14:50:40.037Z,0.76
2023-01-24T14:53:31.237Z,0.74
2023-01-24T14:56:12.232Z,0.71
2023-01-24T14:58:41.926Z,0.67
2023-01-24T15:01:27.292Z,0.62
2023-01-24T15:03:58.115Z,0.57
2023-01-24T15:06:29.318Z,0.51
2023-01-24T15:09:00.605Z,0.45
2023-01-24T15:11:35.904Z,0.39
2023-01-24T15:14:07.616Z,0.33
2023-01-24T15:16:49.918Z,0.30
2023-01-24T15:19:23.862Z,0.24
2023-01-24T15:21:55.095Z,0.20
2023-01-24T15:24:33.929Z,0.16
2023-01-24T15:27:32.894Z,0.13
2023-01-24T15:30:18.582Z,0.08
2023-01-24T15:32:48.587Z,-0.01
2023-01-24T15:35:36.881Z,-0.11
2023-01-24T15:38:30.139Z,-0.21
2023-01-24T15:41:16.558Z,-0.27
2023-01-24T15:43:57.749Z,-0.30
2023-01-24T15:46:53.711Z,-0.33
2023-01-24T15:49:35.919Z,-0.36
2023-01-24T15:52:08.599Z,-0.36
2023-01-24T15:54:39.200Z,-0.33
2023-01-24T15:57:21.617Z,-0.30
2023-01-24T15:59:58.781Z,-0.26
2023-01-24T16:02:28.623Z,-0.24
2023-01-24T16:05:00.368Z,-0.21
2023-01-24T16:07:31.693Z,-0.20
2023-01-24T16:10:06.580Z,-0.20
2023-01-24T16:12:37.459Z,-0.14
2023-01-24T16:15:09.763Z,-0.07
2023-01-24T16:17:41.263Z,-0.05
2023-01-24T16:20:21.935Z,-0.00
2023-01-24T16:22:51.515Z,0.05
2023-01-24T16:25:23.520Z,0.06
2023-01-24T16:27:57.625Z,0.09
2023-01-24T16:30:29.723Z,0.12
2023-01-24T16:33:00.534Z,0.17
2023-01-24T16:35:31.504Z,0.21
2023-01-24T16:38:02.348Z,0.22
2023-01-24T16:40:34.733Z,0.21
2023-01-24T16:43:08.903Z,0.17
2023-01-24T16:45:40.683Z,0.14
2023-01-24T16:48:11.517Z,0.13
2023-01-24T16:50:43.103Z,0.11
2023-01-24T16:53:16.759Z,0.08
2023-01-24T16:55:58.150Z,0.05
2023-01-24T16:58:28.522Z,0.01
2023-01-24T17:00:58.228Z,-0.04
2023-01-24T17:03:29.043Z,-0.08
2023-01-24T17:06:01.648Z,-0.08
2023-01-24T17:08:31.936Z,-0.04
2023-01-24T17:11:10.341Z,-0.03
2023-01-24T17:13:41.973Z,-0.02
2023-01-24T17:16:11.823Z,0.02
2023-01-24T17:18:41.141Z,0.05
2023-01-24T17:21:15.653Z,0.02
2023-01-24T17:23:44.443Z,0.01
2023-01-24T17:26:15.111Z,0.04
2023-01-24T17:28:45.277Z,0.07
2023-01-24T17:31:19.902Z,0.05
2023-01-24T17:33:48.965Z,-0.04
2023-01-24T17:36:19.281Z,-0.07
2023-01-24T17:38:48.746Z,-0.07
2023-01-24T17:41:23.785Z,-0.11
2023-01-24T17:43:53.439Z,-0.14
2023-01-24T17:46:22.297Z,-0.13
2023-01-24T17:48:51.475Z,-0.10
2023-01-24T17:51:19.814Z,-0.04
2023-01-24T17:53:48.274Z,-0.04
2023-01-24T17:56:18.247Z,0.01
2023-01-24T17:58:46.671Z,0.02
2023-01-24T18:01:16.078Z,0.01
2023-01-24T18:03:45.015Z,-0.04
2023-01-24T18:06:14.225Z,-0.07
2023-01-24T18:08:42.859Z,-0.11
2023-01-24T18:11:13.035Z,-0.12
2023-01-24T18:13:42.546Z,-0.16
2023-01-24T18:16:15.209Z,-0.16
2023-01-24T18:18:47.870Z,-0.22
2023-01-24T18:21:25.341Z,-0.24
2023-01-24T18:23:59.709Z,-0.26
2023-01-24T18:26:32.546Z,-0.33
2023-01-24T18:29:02.165Z,-0.42
2023-01-24T18:31:32.368Z,-0.43
2023-01-24T18:34:01.623Z,-0.42
2023-01-24T18:36:30.598Z,-0.41
2023-01-24T18:38:59.240Z,-0.38
2023-01-24T18:41:29.218Z,-0.38
2023-01-24T18:43:58.953Z,-0.37
2023-01-24T18:46:28.243Z,-0.39
2023-01-24T18:48:57.327Z,-0.47
2023-01-24T18:51:25.946Z,-0.52
2023-01-24T18:53:55.087Z,-0.53
2023-01-24T18:56:23.688Z,-0.54
2023-01-24T18:58:52.464Z,-0.51
2023-01-24T19:01:23.998Z,-0.48
2023-01-24T19:03:53.918Z,-0.43
2023-01-24T19:06:28.617Z,-0.38
2023-01-24T19:09:05.047Z,-0.33
2023-01-24T19:11:36.852Z,-0.31
2023-01-24T19:14:06.200Z,-0.29
2023-01-24T19:16:37.405Z,-0.27
2023-01-24T19:19:07.197Z,-0.26
2023-01-24T19:21:36.131Z,-0.27
2023-01-24T19:24:05.629Z,-0.29
2023-01-24T19:26:35.210Z,-0.25
2023-01-24T19:29:03.685Z,-0.22
2023-01-24T19:31:32.786Z,-0.19
2023-01-24T19:34:01.589Z,-0.17
2023-01-24T19:36:30.159Z,-0.18
2023-01-24T19:39:01.799Z,-0.19
2023-01-24T19:41:30.396Z,-0.19
2023-01-24T19:46:50.045Z,-0.27
2023-01-24T19:49:19.419Z,-0.35
2023-01-24T19:51:48.781Z,-0.39
2023-01-24T19:54:17.937Z,-0.47
2023-01-24T19:56:46.581Z,-0.54
2023-01-24T19:59:17.995Z,-0.56
2023-01-24T20:01:47.252Z,-0.68
2023-01-24T20:04:23.846Z,-0.79
2023-01-24T20:06:54.474Z,-0.84
2023-01-24T20:09:24.691Z,-0.83
2023-01-24T20:11:53.498Z,-0.80
2023-01-24T20:14:23.642Z,-0.80
2023-01-24T20:16:52.435Z,-0.81
2023-01-24T20:19:29.557Z,-0.85
2023-01-24T20:22:00.118Z,-0.87
2023-01-24T20:24:30.084Z,-0.88
2023-01-24T20:26:58.675Z,-0.84
2023-01-24T20:29:27.175Z,-0.81
2023-01-24T20:31:58.604Z,-0.78
2023-01-24T20:34:30.708Z,-0.75
2023-01-24T20:36:59.059Z,-0.71
2023-01-24T20:39:27.532Z,-0.69
2023-01-24T20:41:56.448Z,-0.69
2023-01-24T20:44:27.347Z,-0.68
2023-01-24T20:46:57.128Z,-0.75
2023-01-24T20:49:26.341Z,-0.80
2023-01-24T20:51:55.267Z,-0.83
2023-01-24T20:54:24.470Z,-0.84
2023-01-24T20:56:57.764Z,-0.85
2023-01-24T20:59:29.601Z,-0.88
2023-01-24T21:01:58.325Z,-0.80
2023-01-24T21:04:27.067Z,-0.75
2023-01-24T21:06:55.544Z,-0.79
2023-01-24T21:09:24.696Z,-0.72
2023-01-24T21:11:53.428Z,-0.64
2023-01-24T21:14:24.283Z,-0.59
2023-01-24T21:16:53.513Z,-0.53
2023-01-24T21:19:25.051Z,-0.51
2023-01-24T21:21:54.422Z,-0.54
2023-01-24T21:24:32.860Z,-0.56
2023-01-24T21:27:03.655Z,-0.63
2023-01-24T21:29:32.440Z,-0.74
2023-01-24T21:32:03.675Z,-0.83
2023-01-24T21:34:32.421Z,-0.81
2023-01-24T21:37:01.356Z,-0.83
2023-01-24T21:39:30.323Z,-0.83
2023-01-24T21:42:00.583Z,-0.83
2023-01-24T21:44:35.229Z,-0.84
2023-01-24T21:47:05.529Z,-0.79
2023-01-24T21:49:34.417Z,-0.71
2023-01-24T21:52:03.831Z,-0.66
2023-01-24T21:54:34.687Z,-0.58
2023-01-24T21:57:31.963Z,-0.52
2023-01-24T22:00:07.427Z,-0.49
2023-01-24T22:02:42.971Z,-0.50
2023-01-24T22:05:12.939Z,-0.60
2023-01-24T22:07:42.163Z,-0.63
2023-01-24T22:10:13.478Z,-0.59
2023-01-24T22:12:43.654Z,-0.55
2023-01-24T22:15:17.191Z,-0.53
2023-01-24T22:17:47.507Z,-0.53
2023-01-24T22:20:19.950Z,-0.53
2023-01-24T22:23:24.127Z,-0.50
2023-01-24T22:26:17.112Z,-0.48
2023-01-24T22:28:46.388Z,-0.44
2023-01-24T22:31:16.288Z,-0.45
2023-01-24T22:33:45.838Z,-0.52
2023-01-24T22:36:15.719Z,-0.48
2023-01-24T22:38:44.819Z,-0.42
2023-01-24T22:41:13.910Z,-0.40
2023-01-24T22:43:43.240Z,-0.44
2023-01-24T22:46:12.070Z,-0.50
2023-01-24T22:48:41.410Z,-0.50
2023-01-24T22:51:10.563Z,-0.47
2023-01-24T22:53:39.636Z,-0.44
2023-01-24T22:56:08.083Z,-0.43
2023-01-24T22:58:37.370Z,-0.44
2023-01-24T23:01:06.792Z,-0.44
2023-01-24T23:03:36.053Z,-0.41
2023-01-24T23:06:08.466Z,-0.40
2023-01-24T23:08:37.992Z,-0.41
2023-01-24T23:11:12.675Z,-0.45
2023-01-24T23:14:01.329Z,-0.49
2023-01-24T23:17:07.314Z,-0.53
2023-01-24T23:19:56.743Z,-0.63
2023-01-24T23:22:31.977Z,-0.72
2023-01-24T23:25:01.576Z,-0.80
2023-01-24T23:27:37.004Z,-0.90
2023-01-24T23:30:42.474Z,-0.99
2023-01-24T23:33:37.098Z,-1.03
2023-01-24T23:36:06.171Z,-1.04
2023-01-24T23:38:35.426Z,-1.07
2023-01-24T23:41:06.683Z,-1.15
2023-01-24T23:43:36.081Z,-1.13
2023-01-24T23:46:11.871Z,-1.08
2023-01-24T23:48:41.124Z,-1.06
2023-01-24T23:51:11.387Z,-1.10
2023-01-24T23:53:40.730Z,-1.02
2023-01-24T23:56:11.437Z,-0.98
2023-01-24T23:58:40.690Z,-0.97
